Time;durP1;ratioP1;P1;durP2;ratioP2;P2;SDS_P1;SDS_P2;PMS_P1;PMS_P2;Temp;Humidity;BMP_temperature;BMP_pressure;BME280_temperature;BME280_humidity;BME280_pressure;Samples;Min_cycle;Max_cycle;Signal;HPM_P1;HPM_P2
2023/01/18 00:01:36;;;;;;;5.30;1.93;;;;;;;-0.94;100.00;98002.53;5029031;28;20029;-71
2023/01/18 00:04:01;;;;;;;3.53;1.83;;;;;;;-0.82;100.00;98004.22;5020302;28;20227;-71
2023/01/18 00:06:26;;;;;;;3.30;1.40;;;;;;;-0.67;100.00;97993.84;5023428;28;20116;-71
2023/01/18 00:08:53;;;;;;;3.23;1.40;;;;;;;-0.53;99.85;98003.31;5031520;28;20037;-71
2023/01/18 00:11:19;;;;;;;4.67;1.23;;;;;;;-0.50;98.90;98009.38;5022062;28;20038;-71
2023/01/18 00:13:45;;;;;;;4.50;2.03;;;;;;;-0.46;98.72;98021.44;5022843;28;20043;-71
2023/01/18 00:16:12;;;;;;;5.33;1.33;;;;;;;-0.42;98.66;98019.69;5021575;28;20502;-71
2023/01/18 00:18:38;;;;;;;5.07;1.67;;;;;;;-0.34;98.50;98027.44;5020636;28;20034;-71
2023/01/18 00:21:06;;;;;;;3.87;1.07;;;;;;;-0.23;98.16;98028.31;5027608;28;20030;-71
2023/01/18 00:23:32;;;;;;;4.63;1.23;;;;;;;-0.17;97.73;98036.06;5030497;28;20033;-72
2023/01/18 00:26:05;;;;;;;3.27;1.47;;;;;;;-0.14;97.34;98041.22;5025824;28;20041;-71
2023/01/18 00:28:30;;;;;;;4.20;1.60;;;;;;;-0.18;97.00;98049.91;5023465;28;20030;-71
2023/01/18 00:30:55;;;;;;;4.65;1.42;;;;;;;-0.20;97.51;98051.63;5024843;28;20408;-71
2023/01/18 00:33:21;;;;;;;4.87;1.80;;;;;;;-0.19;97.16;98044.69;5029739;28;20069;-71
2023/01/18 00:36:01;;;;;;;4.67;1.63;;;;;;;-0.10;97.76;98044.69;5025152;28;20049;-71
2023/01/18 00:38:27;;;;;;;3.70;1.50;;;;;;;-0.12;97.32;98034.31;5029733;28;20571;-71
2023/01/18 00:40:53;;;;;;;5.17;2.00;;;;;;;-0.15;96.86;98038.66;5026513;28;20120;-72
2023/01/18 00:46:02;;;;;;;4.37;1.63;;;;;;;-0.31;97.37;98045.63;5021610;28;20396;-71
2023/01/18 00:48:28;;;;;;;4.72;1.88;;;;;;;-0.27;97.30;98044.72;5025216;28;20067;-71
2023/01/18 00:50:53;;;;;;;4.82;1.92;;;;;;;-0.24;97.41;98047.28;5022667;28;20149;-72
2023/01/18 00:53:18;;;;;;;6.77;1.73;;;;;;;-0.22;96.97;98045.56;5025797;28;20166;-72
2023/01/18 00:55:44;;;;;;;5.60;1.70;;;;;;;-0.16;97.73;98042.94;5032051;28;20079;-71
2023/01/18 00:58:09;;;;;;;4.37;2.07;;;;;;;-0.10;97.06;98037.75;5024376;28;20052;-71
2023/01/18 01:00:34;;;;;;;5.57;2.60;;;;;;;-0.05;96.79;98045.53;5024525;28;20121;-72
2023/01/18 01:03:00;;;;;;;5.33;2.30;;;;;;;-0.01;96.72;98037.72;5025024;28;20080;-71
2023/01/18 01:08:16;;;;;;;3.97;1.90;;;;;;;0.13;96.68;98039.38;5022738;28;20038;-72
2023/01/18 01:10:49;;;;;;;4.57;1.73;;;;;;;0.16;96.82;98044.59;5023910;28;20167;-72
2023/01/18 01:27:06;;;;;;;3.70;1.80;;;;;;;0.40;96.25;98054.84;5024686;28;20046;-71
2023/01/18 01:29:31;;;;;;;4.82;1.70;;;;;;;0.41;95.67;98053.94;5027741;28;20088;-72
2023/01/18 01:31:57;;;;;;;8.25;1.92;;;;;;;0.43;95.34;98060.00;5025077;28;20045;-71
2023/01/18 01:34:22;;;;;;;6.80;2.85;;;;;;;0.46;95.43;98058.28;5025858;28;20116;-71
2023/01/18 01:36:50;;;;;;;6.13;1.52;;;;;;;0.49;94.70;98068.63;5033119;28;20065;-71
2023/01/18 01:39:16;;;;;;;7.18;2.65;;;;;;;0.50;94.99;98059.97;5023739;28;20048;-71
2023/01/18 01:41:41;;;;;;;5.40;2.28;;;;;;;0.51;95.11;98059.09;5023362;28;20124;-71
2023/01/18 01:44:18;;;;;;;7.35;2.78;;;;;;;0.53;95.29;98059.97;5022310;28;20133;-71
2023/01/18 01:47:01;;;;;;;3.40;1.65;;;;;;;0.49;95.79;98063.44;5019197;28;20100;-71
2023/01/18 01:49:31;;;;;;;13.77;1.90;;;;;;;0.54;95.05;98059.94;5021583;28;20568;-71
2023/01/18 01:52:04;;;;;;;7.85;2.92;;;;;;;0.57;94.97;98051.28;5022056;28;20042;-71
2023/01/18 01:54:39;;;;;;;3.97;1.70;;;;;;;0.58;94.46;98053.03;5022945;28;20396;-71
2023/01/18 01:57:13;;;;;;;4.22;1.70;;;;;;;0.51;94.62;98051.31;5023801;28;20037;-71
2023/01/18 01:59:43;;;;;;;5.43;1.75;;;;;;;0.50;94.57;98046.97;5022032;28;20042;-71
2023/01/18 02:02:10;;;;;;;3.72;2.05;;;;;;;0.40;94.24;98047.03;5021225;28;20112;-71
2023/01/18 02:04:36;;;;;;;5.93;1.77;;;;;;;0.36;95.04;98052.25;5042092;23;20057;-74
2023/01/18 02:07:01;;;;;;;4.60;1.90;;;;;;;0.41;95.34;98043.56;5025354;28;20049;-74
2023/01/18 02:09:27;;;;;;;4.45;1.90;;;;;;;0.50;94.77;98049.56;5021418;28;20152;-74
2023/01/18 02:11:54;;;;;;;3.60;1.67;;;;;;;0.58;95.52;98053.88;5024354;28;20583;-73
2023/01/18 02:14:23;;;;;;;3.70;1.38;;;;;;;0.68;94.78;98043.41;5021545;28;20033;-73
2023/01/18 02:16:54;;;;;;;3.92;1.67;;;;;;;0.82;94.21;98052.00;5023259;28;20515;-74
2023/01/18 02:19:55;;;;;;;2.53;1.10;;;;;;;0.96;92.81;98044.09;5022799;28;20458;-74
2023/01/18 02:22:58;;;;;;;2.95;1.13;;;;;;;1.07;91.34;98031.88;5022777;28;20140;-74
2023/01/18 02:25:44;;;;;;;3.35;1.15;;;;;;;1.14;90.70;98037.91;5026044;28;20026;-74
2023/01/18 02:28:20;;;;;;;3.50;1.30;;;;;;;1.23;90.64;98030.00;5023609;28;20670;-74
2023/01/18 02:31:06;;;;;;;5.32;1.50;;;;;;;1.29;90.44;98038.63;5022316;28;20042;-73
2023/01/18 02:33:43;;;;;;;7.25;1.70;;;;;;;1.34;89.63;98032.50;5022066;28;20045;-74
2023/01/18 02:36:15;;;;;;;2.20;0.90;;;;;;;1.39;89.28;98031.63;5023014;28;20030;-74
2023/01/18 02:38:43;;;;;;;5.40;1.52;;;;;;;1.42;88.88;98048.91;5021083;28;20400;-73
2023/01/18 02:47:07;;;;;;;6.68;1.73;;;;;;;1.47;87.79;98040.19;5026263;28;20503;-73
2023/01/18 02:49:32;;;;;;;3.28;1.08;;;;;;;1.49;87.63;98033.25;5021627;28;20489;-73
2023/01/18 02:52:01;;;;;;;2.70;1.40;;;;;;;1.46;87.52;98035.00;5023757;28;20173;-73
2023/01/18 02:54:29;;;;;;;3.72;1.42;;;;;;;1.45;87.59;98035.88;5023229;28;20030;-73
2023/01/18 02:56:58;;;;;;;4.30;1.58;;;;;;;1.50;87.26;98036.72;5021983;28;20459;-74
2023/01/18 02:59:31;;;;;;;4.35;1.15;;;;;;;1.57;87.23;98033.16;5021218;28;20038;-74
2023/01/18 03:02:06;;;;;;;3.13;1.00;;;;;;;1.58;86.61;98040.09;5020021;28;20046;-74
2023/01/18 03:04:40;;;;;;;2.58;1.45;;;;;;;1.63;86.77;98033.09;5025565;28;20033;-74
2023/01/18 03:07:21;;;;;;;4.40;1.05;;;;;;;1.60;85.94;98030.53;5022948;28;20124;-74
2023/01/18 03:09:47;;;;;;;2.35;0.90;;;;;;;1.58;85.61;98034.03;5025446;28;20374;-73
2023/01/18 03:12:25;;;;;;;3.67;1.15;;;;;;;1.61;85.23;98041.78;5020514;28;20060;-73
2023/01/18 03:14:50;;;;;;;4.10;1.00;;;;;;;1.64;85.06;98036.56;5022804;28;20094;-74
2023/01/18 03:17:19;;;;;;;5.47;1.42;;;;;;;1.64;84.66;98034.81;5022468;28;20117;-74
2023/01/18 03:20:06;;;;;;;2.40;1.13;;;;;;;1.65;84.71;98043.47;5020270;28;20053;-74
2023/01/18 03:25:27;;;;;;;2.97;1.23;;;;;;;1.71;83.95;98040.81;5021436;28;20041;-74
2023/01/18 03:33:47;;;;;;;2.85;1.38;;;;;;;1.79;83.46;98033.78;5022299;28;20049;-74
2023/01/18 03:36:33;;;;;;;2.55;1.05;;;;;;;1.81;82.81;98038.97;5021528;28;20045;-73
2023/01/18 03:39:06;;;;;;;3.95;1.00;;;;;;;1.75;82.64;98032.94;5021293;28;20045;-74
2023/01/18 03:41:36;;;;;;;3.22;0.95;;;;;;;1.77;82.58;98025.16;5019002;28;20033;-73
2023/01/18 03:44:08;;;;;;;3.30;1.10;;;;;;;1.74;82.58;98033.84;5021437;28;20034;-74
2023/01/18 03:46:33;;;;;;;4.45;0.90;;;;;;;1.69;82.97;98032.16;5021389;28;20103;-74
2023/01/18 03:48:59;;;;;;;2.92;1.00;;;;;;;1.77;83.26;98021.69;5025805;28;20041;-73
2023/01/18 03:51:39;;;;;;;3.20;1.38;;;;;;;1.79;83.46;98023.41;5020827;28;20038;-74
2023/01/18 03:54:14;;;;;;;3.88;1.00;;;;;;;1.81;82.67;98019.03;5023886;28;20420;-74
2023/01/18 03:57:06;;;;;;;4.97;1.05;;;;;;;1.76;82.68;98018.22;5023059;28;20065;-74
2023/01/18 03:59:36;;;;;;;4.18;1.08;;;;;;;1.74;83.10;98019.97;5023439;28;20040;-73
2023/01/18 04:02:04;;;;;;;6.03;1.20;;;;;;;1.77;83.50;98025.16;5025794;28;20519;-73
2023/01/18 04:04:29;;;;;;;7.82;1.63;;;;;;;1.82;83.21;98032.91;5021240;28;20036;-73
2023/01/18 04:06:56;;;;;;;4.68;1.33;;;;;;;1.89;83.61;98034.56;5027088;28;20507;-73
2023/01/18 04:09:22;;;;;;;4.95;1.50;;;;;;;1.95;83.49;98030.13;5023387;28;20606;-73
2023/01/18 04:11:48;;;;;;;4.40;1.10;;;;;;;1.96;83.34;98037.09;5026403;28;20099;-74
2023/01/18 04:14:13;;;;;;;2.80;1.08;;;;;;;2.01;83.28;98033.53;5028547;28;20025;-74
2023/01/18 04:16:38;;;;;;;3.42;0.90;;;;;;;2.05;83.35;98040.44;5024593;28;20067;-73
2023/01/18 04:19:06;;;;;;;2.47;0.70;;;;;;;2.01;83.26;98033.53;5022926;28;20057;-73
2023/01/18 04:21:31;;;;;;;2.58;0.93;;;;;;;1.93;83.13;98031.03;5023515;28;20120;-73
2023/01/18 04:23:56;;;;;;;2.30;0.80;;;;;;;1.90;83.40;98041.47;5025222;28;20080;-73
2023/01/18 04:26:22;;;;;;;5.72;1.23;;;;;;;1.90;83.58;98036.28;5023101;28;20068;-74
2023/01/18 04:28:47;;;;;;;3.80;1.02;;;;;;;1.91;83.99;98038.88;5023937;28;20138;-73
2023/01/18 04:31:12;;;;;;;3.67;1.38;;;;;;;1.91;83.83;98031.06;5025637;28;20555;-73
2023/01/18 04:33:38;;;;;;;3.30;1.65;;;;;;;1.96;84.30;98033.59;5032733;28;20029;-73
2023/01/18 04:36:03;;;;;;;3.33;1.17;;;;;;;2.03;83.70;98037.00;5023263;28;20485;-73
2023/01/18 04:38:29;;;;;;;3.75;1.48;;;;;;;2.00;84.05;98034.44;5028304;28;20129;-73
2023/01/18 04:40:54;;;;;;;4.18;1.27;;;;;;;2.03;84.14;98037.00;5024736;28;20052;-74
2023/01/18 04:43:19;;;;;;;4.70;1.65;;;;;;;1.97;83.67;98037.94;5027636;28;20033;-73
2023/01/18 04:45:53;;;;;;;6.30;1.38;;;;;;;1.92;83.72;98042.31;5023277;28;20041;-73
2023/01/18 04:48:19;;;;;;;4.40;1.67;;;;;;;1.90;84.12;98042.34;5024458;28;20065;-73
2023/01/18 04:50:45;;;;;;;2.92;1.02;;;;;;;1.84;83.85;98037.22;5028362;28;20175;-73
2023/01/18 04:53:10;;;;;;;6.32;1.63;;;;;;;1.74;84.34;98032.97;5024825;28;20041;-73
2023/01/18 04:55:36;;;;;;;4.00;1.33;;;;;;;1.80;84.56;98040.72;5022924;28;20045;-74
2023/01/18 04:58:01;;;;;;;6.22;1.80;;;;;;;1.84;84.35;98044.16;5025156;28;20036;-75
2023/01/18 05:00:26;;;;;;;5.97;2.20;;;;;;;1.84;84.32;98044.16;5024745;28;20041;-74
2023/01/18 05:02:52;;;;;;;4.40;2.13;;;;;;;1.85;84.79;98044.13;5020584;28;20065;-74
2023/01/18 05:05:17;;;;;;;5.63;1.80;;;;;;;1.82;84.70;98054.56;5023184;28;20072;-74
2023/01/18 05:07:42;;;;;;;7.53;1.40;;;;;;;1.82;84.59;98059.75;5029766;28;20033;-74
2023/01/18 05:10:08;;;;;;;4.75;1.63;;;;;;;1.86;84.95;98061.47;5027340;28;20496;-74
2023/01/18 05:12:34;;;;;;;8.57;2.20;;;;;;;1.90;84.76;98063.13;5028590;28;20042;-74
2023/01/18 05:14:59;;;;;;;3.83;1.40;;;;;;;1.93;84.63;98068.31;5022322;28;20053;-74
2023/01/18 05:17:29;;;;;;;6.60;1.67;;;;;;;1.92;84.73;98066.59;5027761;28;20033;-74
2023/01/18 05:19:55;;;;;;;7.28;1.90;;;;;;;2.00;84.64;98079.53;5026970;28;20267;-74
2023/01/18 05:22:21;;;;;;;6.03;2.08;;;;;;;2.04;85.07;98080.34;5026571;28;20040;-74
2023/01/18 05:24:48;;;;;;;6.25;2.00;;;;;;;2.01;84.47;98082.97;5026038;28;20112;-74
2023/01/18 05:27:14;;;;;;;3.58;1.83;;;;;;;2.04;84.61;98086.38;5027653;28;20493;-74
2023/01/18 05:29:39;;;;;;;10.00;1.95;;;;;;;2.08;84.74;98095.91;5023384;28;20049;-74
2023/01/18 05:32:09;;;;;;;5.03;1.67;;;;;;;2.10;84.61;98095.91;5023107;28;20417;-74
2023/01/18 05:34:34;;;;;;;6.13;2.15;;;;;;;2.14;84.49;98098.41;5024781;28;20037;-74
2023/01/18 05:37:00;;;;;;;6.55;2.55;;;;;;;2.12;84.55;98105.41;5028795;28;20032;-74
2023/01/18 05:39:25;;;;;;;4.25;1.58;;;;;;;2.07;84.41;98108.91;5024161;28;20493;-74
2023/01/18 05:41:51;;;;;;;5.03;1.88;;;;;;;2.04;84.75;98104.59;5025144;28;20033;-74
2023/01/18 05:44:16;;;;;;;6.40;2.35;;;;;;;2.06;84.68;98104.59;5020990;28;20099;-74
2023/01/18 05:46:41;;;;;;;6.70;2.17;;;;;;;2.01;84.78;98107.25;5026483;28;20040;-74
2023/01/18 05:49:06;;;;;;;7.45;1.60;;;;;;;1.96;85.24;98109.91;5035240;28;20029;-73
2023/01/18 05:51:32;;;;;;;4.97;2.08;;;;;;;1.91;85.39;98111.69;5032012;28;20033;-74
2023/01/18 05:53:57;;;;;;;5.85;2.20;;;;;;;1.92;85.72;98116.00;5025553;28;20083;-74
2023/01/18 05:56:23;;;;;;;5.80;2.53;;;;;;;1.98;85.15;98115.09;5028861;28;20391;-74
2023/01/18 05:58:48;;;;;;;4.78;2.28;;;;;;;1.94;85.59;98116.88;5027272;28;20558;-74
2023/01/18 06:01:13;;;;;;;19.05;9.55;;;;;;;1.91;85.82;98116.91;5030684;28;20046;-74
2023/01/18 06:03:39;;;;;;;7.35;2.85;;;;;;;1.92;85.79;98123.81;5024387;28;20088;-74
2023/01/18 06:06:05;;;;;;;7.00;2.88;;;;;;;1.97;85.71;98121.19;5026588;28;20037;-74
2023/01/18 06:08:31;;;;;;;6.72;3.17;;;;;;;1.96;85.61;98129.84;5029360;28;20438;-74
2023/01/18 06:10:58;;;;;;;8.32;2.67;;;;;;;1.98;85.85;98128.09;5026587;28;20033;-74
2023/01/18 06:13:28;;;;;;;7.03;2.10;;;;;;;2.08;85.43;98126.28;5022807;28;20026;-74
2023/01/18 06:15:55;;;;;;;5.45;2.17;;;;;;;2.08;85.19;98132.31;5018615;28;20044;-74
2023/01/18 06:18:21;;;;;;;5.35;1.90;;;;;;;2.01;85.69;98133.25;5020403;28;20044;-74
2023/01/18 06:20:47;;;;;;;6.47;2.67;;;;;;;2.03;85.65;98136.72;5020422;28;20060;-74
2023/01/18 06:23:12;;;;;;;7.50;2.75;;;;;;;1.92;85.80;98138.56;5018859;28;20136;-74
2023/01/18 06:25:38;;;;;;;6.30;2.40;;;;;;;1.71;87.77;98148.28;5021868;28;20041;-74
2023/01/18 06:28:04;;;;;;;7.53;2.53;;;;;;;1.67;88.63;98151.78;5020061;28;20112;-74
2023/01/18 06:30:30;;;;;;;4.72;2.30;;;;;;;1.67;89.74;98148.31;5026699;28;20029;-74
2023/01/18 06:32:55;;;;;;;5.65;2.28;;;;;;;1.61;90.60;98151.84;5022303;28;20463;-74
2023/01/18 06:35:21;;;;;;;7.68;3.05;;;;;;;1.57;91.51;98155.31;5024054;28;20068;-74
2023/01/18 06:37:46;;;;;;;12.52;3.60;;;;;;;1.62;92.38;98160.50;5027919;28;20065;-73
2023/01/18 06:40:12;;;;;;;7.45;3.53;;;;;;;1.65;93.00;98163.06;5027414;28;20397;-73
2023/01/18 06:42:38;;;;;;;7.68;2.78;;;;;;;1.63;94.34;98165.69;5025312;28;20063;-73
2023/01/18 06:45:04;;;;;;;5.18;2.22;;;;;;;1.61;96.30;98166.59;5023557;28;20069;-73
2023/01/18 06:47:30;;;;;;;9.45;2.97;;;;;;;1.57;97.29;98162.28;5025508;28;20099;-73
2023/01/18 06:49:55;;;;;;;9.27;3.42;;;;;;;1.58;97.85;98164.88;5025158;28;20025;-73
2023/01/18 06:52:21;;;;;;;6.88;2.88;;;;;;;1.58;99.04;98159.69;5023240;28;20045;-74
2023/01/18 06:54:46;;;;;;;6.72;2.53;;;;;;;1.51;99.21;98163.19;5020106;28;20041;-74
2023/01/18 06:57:11;;;;;;;7.65;3.10;;;;;;;1.48;99.93;98158.03;5022560;28;20041;-73
2023/01/18 06:59:37;;;;;;;7.93;2.88;;;;;;;1.45;100.00;98158.91;5019995;28;20049;-74
2023/01/18 07:02:03;;;;;;;6.72;2.67;;;;;;;1.43;100.00;98160.66;5022171;28;20148;-74
2023/01/18 07:04:31;;;;;;;6.50;2.30;;;;;;;1.47;100.00;98166.72;5021286;28;20425;-74
2023/01/18 07:06:56;;;;;;;5.95;3.05;;;;;;;1.47;100.00;98161.50;5028399;28;20041;-74
2023/01/18 07:09:22;;;;;;;8.73;4.05;;;;;;;1.49;100.00;98155.41;5023377;28;20403;-74
2023/01/18 07:11:48;;;;;;;6.13;2.80;;;;;;;1.44;100.00;98162.38;5019860;28;20038;-74
2023/01/18 07:14:13;;;;;;;7.88;2.95;;;;;;;1.43;100.00;98167.59;5022534;28;20033;-74
2023/01/18 07:16:39;;;;;;;9.23;3.40;;;;;;;1.45;100.00;98169.31;5020292;28;20072;-74
2023/01/18 07:19:04;;;;;;;9.07;4.03;;;;;;;1.54;100.00;98173.56;5020909;28;20041;-73
2023/01/18 07:21:31;;;;;;;14.30;6.20;;;;;;;1.60;100.00;98170.94;5030834;28;20107;-74
2023/01/18 07:23:57;;;;;;;16.27;6.85;;;;;;;1.64;100.00;98174.34;5023185;28;20030;-73
2023/01/18 07:26:24;;;;;;;17.23;7.47;;;;;;;1.69;100.00;98177.78;5023991;28;20095;-74
2023/01/18 07:28:50;;;;;;;10.75;5.28;;;;;;;1.74;100.00;98182.06;5025960;28;20048;-74
2023/01/18 07:31:16;;;;;;;8.15;3.50;;;;;;;1.72;100.00;98183.81;5024869;28;20030;-74
2023/01/18 07:33:42;;;;;;;6.70;2.53;;;;;;;1.70;100.00;98177.78;5024483;28;20042;-73
2023/01/18 07:36:09;;;;;;;10.07;4.70;;;;;;;1.64;100.00;98184.75;5025649;28;20036;-74
2023/01/18 07:38:35;;;;;;;9.70;4.63;;;;;;;1.65;100.00;98187.34;5030659;28;20041;-73
2023/01/18 07:41:10;;;;;;;10.52;4.55;;;;;;;1.65;100.00;98187.34;5026125;28;20037;-74
2023/01/18 07:43:38;;;;;;;9.88;3.78;;;;;;;1.64;100.00;98188.22;5027002;28;20034;-74
2023/01/18 07:46:05;;;;;;;8.45;4.03;;;;;;;1.67;100.00;98185.59;5027557;28;20050;-73
2023/01/18 07:48:32;;;;;;;12.23;5.68;;;;;;;1.69;100.00;98183.84;5026208;28;20476;-74
2023/01/18 07:50:59;;;;;;;11.70;4.40;;;;;;;1.70;100.00;98184.69;5024115;28;20057;-74
2023/01/18 07:53:26;;;;;;;6.40;3.03;;;;;;;1.71;100.00;98182.09;5024368;28;20041;-74
2023/01/18 07:55:52;;;;;;;7.55;3.65;;;;;;;1.67;100.00;98180.38;5025144;28;20037;-74
2023/01/18 07:58:18;;;;;;;9.30;4.28;;;;;;;1.64;100.00;98189.97;5024346;28;20092;-74
2023/01/18 08:00:44;;;;;;;8.63;3.97;;;;;;;1.66;100.00;98183.88;5026709;28;20124;-73
2023/01/18 08:03:15;;;;;;;8.05;3.45;;;;;;;1.58;100.00;98185.69;5025583;28;20133;-73
2023/01/18 08:05:44;;;;;;;8.25;3.92;;;;;;;1.61;100.00;98195.19;5027458;28;20037;-74
2023/01/18 08:08:11;;;;;;;9.98;4.18;;;;;;;1.57;100.00;98189.13;5025628;28;20037;-73
2023/01/18 08:10:37;;;;;;;11.88;3.80;;;;;;;1.55;100.00;98190.91;5025730;28;20037;-73
2023/01/18 08:13:04;;;;;;;12.02;5.78;;;;;;;1.52;100.00;98193.53;5034548;23;20034;-74
2023/01/18 08:15:30;;;;;;;9.38;3.70;;;;;;;1.56;100.00;98197.81;5024911;28;20037;-74
2023/01/18 08:17:55;;;;;;;7.97;4.10;;;;;;;1.53;100.00;98192.63;5026310;28;20037;-73
2023/01/18 08:20:20;;;;;;;10.30;3.40;;;;;;;1.53;100.00;98197.84;5025591;28;20545;-74
2023/01/18 08:22:46;;;;;;;7.80;3.03;;;;;;;1.61;100.00;98195.19;5031702;28;20057;-74
2023/01/18 08:25:12;;;;;;;6.95;3.25;;;;;;;1.63;100.00;98204.69;5026370;28;20029;-73
2023/01/18 08:27:37;;;;;;;6.72;3.70;;;;;;;1.52;100.00;98201.31;5028248;28;20056;-73
2023/01/18 08:30:04;;;;;;;5.82;2.63;;;;;;;1.61;100.00;98201.25;5029526;28;20072;-74
2023/01/18 08:32:30;;;;;;;8.35;3.08;;;;;;;1.63;100.00;98204.69;5030676;28;20033;-74
2023/01/18 08:34:55;;;;;;;8.10;3.22;;;;;;;1.72;100.00;98201.16;5026609;28;20033;-74
2023/01/18 08:37:22;;;;;;;8.23;3.33;;;;;;;1.69;100.00;98202.03;5022552;28;20558;-74
2023/01/18 08:39:48;;;;;;;9.55;2.92;;;;;;;1.75;100.00;98198.53;5024915;28;20033;-74
2023/01/18 08:42:13;;;;;;;6.32;2.67;;;;;;;1.89;100.00;98201.03;5024666;28;20491;-74
2023/01/18 08:44:38;;;;;;;7.32;3.35;;;;;;;1.75;100.00;98201.97;5029613;28;20554;-74
2023/01/18 08:47:04;;;;;;;559.05;255.48;;;;;;;1.75;100.00;98212.38;5022749;28;20489;-74
2023/01/18 08:49:31;;;;;;;1510.07;759.50;;;;;;;1.77;100.00;98201.13;5024492;28;20037;-73
2023/01/18 08:51:57;;;;;;;7.63;6.82;;;;;;;1.74;100.00;98208.06;5025051;28;20038;-74
2023/01/18 08:54:31;;;;;;;7.35;6.65;;;;;;;1.81;100.00;98210.59;5025680;28;20030;-76
2023/01/18 08:57:09;;;;;;;6.47;5.82;;;;;;;1.80;100.00;98214.97;5003718;28;20084;-76
2023/01/18 08:59:41;;;;;;;6.88;6.20;;;;;;;1.82;100.00;98218.41;5011924;28;20038;-76
2023/01/18 09:02:09;;;;;;;7.60;6.68;;;;;;;1.86;100.00;98221.84;5023079;28;20395;-74
2023/01/18 09:04:34;;;;;;;6.78;6.18;;;;;;;1.88;100.00;98228.75;5026723;28;20112;-73
2023/01/18 09:07:00;;;;;;;8.52;7.63;;;;;;;1.86;100.00;98233.13;5010261;28;20125;-73
2023/01/18 09:09:25;;;;;;;8.48;7.68;;;;;;;1.82;100.00;98220.16;5026811;28;20507;-74
2023/01/18 09:11:51;;;;;;;9.75;8.50;;;;;;;1.57;100.00;98224.66;5026477;28;20148;-74
2023/01/18 09:14:16;;;;;;;8.57;7.70;;;;;;;1.59;100.00;98234.19;5024045;28;20041;-74
2023/01/18 09:16:42;;;;;;;8.77;8.02;;;;;;;1.61;100.00;98240.25;5025703;28;20044;-74
2023/01/18 09:19:07;;;;;;;8.93;8.13;;;;;;;1.65;100.00;98241.97;5027953;28;20439;-73
2023/01/18 09:21:33;;;;;;;9.02;8.15;;;;;;;1.67;100.00;98248.00;5025200;28;20520;-73
2023/01/18 09:23:58;;;;;;;9.57;8.60;;;;;;;1.66;100.00;98248.88;5021235;28;20088;-74
2023/01/18 09:26:24;;;;;;;9.18;8.27;;;;;;;1.60;100.00;98250.63;5027231;28;20056;-74
2023/01/18 09:28:51;;;;;;;9.10;8.20;;;;;;;1.57;100.00;98258.47;5021754;28;20030;-74
2023/01/18 09:31:19;;;;;;;9.90;9.10;;;;;;;1.62;100.00;98259.31;5021958;28;20034;-73
2023/01/18 09:33:44;;;;;;;9.75;8.95;;;;;;;1.63;100.00;98256.69;5023485;28;20037;-73
2023/01/18 09:36:12;;;;;;;9.43;8.63;;;;;;;1.61;100.00;98262.78;5024397;28;20108;-73
2023/01/18 09:38:46;;;;;;;11.30;10.35;;;;;;;1.67;100.00;98268.78;5027427;28;20459;-75
2023/01/18 09:41:28;;;;;;;11.25;10.40;;;;;;;1.62;100.00;98261.91;5028304;28;20058;-74
2023/01/18 09:43:59;;;;;;;14.55;13.07;;;;;;;1.58;100.00;98263.66;5025983;28;20496;-74
2023/01/18 09:46:24;;;;;;;13.35;12.23;;;;;;;1.64;100.00;98262.75;5022923;28;20038;-74
2023/01/18 09:49:18;;;;;;;15.65;14.15;;;;;;;1.78;100.00;98271.31;5023185;28;20107;-74
2023/01/18 09:51:57;;;;;;;13.40;12.27;;;;;;;1.85;100.00;98261.75;5017902;28;20507;-74
2023/01/18 09:54:47;;;;;;;10.55;9.65;;;;;;;1.90;100.00;98265.19;5035067;28;20083;-73
2023/01/18 09:57:33;;;;;;;11.52;10.65;;;;;;;1.99;100.00;98265.09;5023449;28;20404;-73
2023/01/18 10:00:00;;;;;;;12.88;11.98;;;;;;;1.92;100.00;98279.03;5024532;28;20041;-74
2023/01/18 10:02:34;;;;;;;12.77;11.75;;;;;;;2.00;100.00;98274.63;5023581;28;20037;-74
2023/01/18 10:05:08;;;;;;;11.05;10.15;;;;;;;2.01;100.00;98273.75;5021435;28;20042;-74
2023/01/18 10:07:46;;;;;;;11.43;10.35;;;;;;;2.03;100.00;98265.94;5023702;28;20120;-74
2023/01/18 10:10:18;;;;;;;11.55;10.60;;;;;;;2.03;100.00;98269.41;5025756;28;20038;-73
2023/01/18 10:12:54;;;;;;;10.38;9.48;;;;;;;2.15;100.00;98260.66;5025289;28;20036;-74
2023/01/18 10:15:25;;;;;;;10.73;9.82;;;;;;;2.23;100.00;98263.16;5025104;28;20037;-73
2023/01/18 10:17:55;;;;;;;9.25;8.45;;;;;;;2.32;100.00;98263.09;5021599;28;20381;-74
2023/01/18 10:20:45;;;;;;;11.13;10.23;;;;;;;2.34;100.00;98256.13;5024136;28;20037;-74
2023/01/18 10:23:23;;;;;;;11.48;10.57;;;;;;;2.48;100.00;98259.44;5026703;28;20044;-73
2023/01/18 10:26:00;;;;;;;11.13;10.23;;;;;;;2.55;100.00;98255.06;5003517;28;20056;-74
2023/01/18 10:28:46;;;;;;;10.82;9.93;;;;;;;2.58;100.00;98261.06;5020505;28;20065;-74
2023/01/18 10:31:37;;;;;;;11.30;10.40;;;;;;;2.63;100.00;98263.63;5023385;28;20117;-74
2023/01/18 10:34:13;;;;;;;11.13;10.20;;;;;;;2.63;100.00;98268.84;5022015;28;20046;-74
2023/01/18 10:36:44;;;;;;;11.93;10.82;;;;;;;2.73;100.00;98267.88;5022246;28;20109;-74
2023/01/18 10:39:26;;;;;;;11.40;10.40;;;;;;;2.75;100.00;98260.91;5024297;28;20049;-74
2023/01/18 10:41:56;;;;;;;11.00;10.10;;;;;;;2.81;100.00;98271.25;5010376;28;20038;-73
2023/01/18 10:44:22;;;;;;;11.27;10.27;;;;;;;2.92;100.00;98260.72;5026824;28;20120;-73
2023/01/18 10:46:48;;;;;;;10.35;9.45;;;;;;;3.00;100.00;98265.81;5022693;28;20033;-73
2023/01/18 10:49:32;;;;;;;11.52;10.52;;;;;;;2.86;100.00;98273.81;5029216;28;20095;-73
2023/01/18 10:52:15;;;;;;;11.32;10.43;;;;;;;2.84;100.00;98275.56;5002490;28;20049;-74
2023/01/18 10:54:48;;;;;;;11.60;10.60;;;;;;;2.85;100.00;98275.53;5020365;28;20481;-74
2023/01/18 10:57:20;;;;;;;10.43;9.63;;;;;;;2.61;100.00;98288.81;5021659;28;20415;-74
2023/01/18 10:59:49;;;;;;;11.50;10.50;;;;;;;2.58;100.00;98271.50;5029836;28;20037;-74
2023/01/18 11:02:33;;;;;;;4.72;4.50;;;;;;;2.48;100.00;98280.28;5020651;28;20034;-74
2023/01/18 11:05:04;;;;;;;8.18;7.22;;;;;;;2.42;100.00;98281.19;5025112;28;20073;-74
2023/01/18 11:07:29;;;;;;;9.25;8.23;;;;;;;2.45;100.00;98280.31;5025968;28;20036;-74
2023/01/18 11:10:00;;;;;;;10.52;9.40;;;;;;;2.49;100.00;98282.03;5020048;28;20045;-73
2023/01/18 11:12:53;;;;;;;12.10;10.90;;;;;;;2.41;100.00;98289.91;5028836;28;20515;-72
2023/01/18 11:15:18;;;;;;;10.65;9.55;;;;;;;2.41;100.00;98299.41;5022615;28;20199;-73
2023/01/18 11:17:53;;;;;;;10.25;9.23;;;;;;;2.34;100.00;98297.78;5019423;28;20649;-72
2023/01/18 11:20:22;;;;;;;29.02;27.00;;;;;;;2.21;100.00;98297.00;5020040;28;20041;-73
2023/01/18 11:22:59;;;;;;;26.50;24.42;;;;;;;2.08;100.00;98305.81;5030146;28;20112;-73
2023/01/18 11:25:45;;;;;;;11.43;9.65;;;;;;;2.11;100.00;98306.63;5024170;28;20509;-73
2023/01/18 11:28:57;;;;;;;9.85;8.63;;;;;;;2.08;100.00;98311.84;5022317;28;20088;-73
2023/01/18 11:31:26;;;;;;;8.68;7.63;;;;;;;2.07;100.00;98304.94;5004050;28;20050;-73
2023/01/18 11:33:54;;;;;;;11.82;7.50;;;;;;;2.10;100.00;98312.72;5027419;28;20037;-72
2023/01/18 11:36:36;;;;;;;9.07;6.97;;;;;;;2.09;100.00;98318.78;5022495;28;20395;-72
2023/01/18 11:39:20;;;;;;;10.10;6.30;;;;;;;1.96;100.00;98323.25;5017155;28;20042;-72
2023/01/18 11:41:45;;;;;;;8.43;6.63;;;;;;;1.92;100.00;98318.06;5022586;28;20037;-72
2023/01/18 11:44:34;;;;;;;9.45;7.45;;;;;;;1.95;100.00;98323.22;5024834;28;20066;-72
2023/01/18 11:47:04;;;;;;;8.98;7.07;;;;;;;1.93;100.00;98327.56;5018889;28;20034;-73
2023/01/18 11:49:41;;;;;;;10.13;7.03;;;;;;;1.92;100.00;98325.88;5020791;28;20030;-73
2023/01/18 11:52:26;;;;;;;8.82;6.95;;;;;;;1.90;100.00;98330.19;5024904;28;20061;-72
2023/01/18 11:54:59;;;;;;;8.02;6.57;;;;;;;2.02;100.00;98337.94;5026045;28;20030;-72
2023/01/18 11:57:26;;;;;;;6.95;5.30;;;;;;;2.00;100.00;98337.06;5019422;28;20033;-72
2023/01/18 11:59:53;;;;;;;9.10;7.05;;;;;;;1.95;100.00;98329.28;5021272;28;20037;-73
2023/01/18 12:03:09;;;;;;;7.75;6.35;;;;;;;2.01;100.00;98341.38;5024167;28;20520;-72
2023/01/18 12:05:48;;;;;;;7.05;5.28;;;;;;;2.09;100.00;98352.59;4979012;28;20519;-73
2023/01/18 12:08:43;;;;;;;7.63;4.65;;;;;;;2.17;100.00;98350.84;5032497;28;20036;-73
2023/01/18 12:11:20;;;;;;;7.38;5.65;;;;;;;2.24;100.00;98356.00;5027227;28;20037;-73
2023/01/18 12:13:58;;;;;;;8.43;5.30;;;;;;;2.35;100.00;98362.81;5025860;28;20072;-72
2023/01/18 12:16:44;;;;;;;6.60;4.47;;;;;;;2.39;100.00;98364.53;5025218;28;20121;-72
2023/01/18 12:19:35;;;;;;;6.38;4.45;;;;;;;2.47;100.00;98361.88;5024284;28;20042;-72
2023/01/18 12:22:12;;;;;;;6.05;4.35;;;;;;;2.51;100.00;98367.91;5024804;28;20676;-72